Time;durP1;ratioP1;P1;durP2;ratioP2;P2;SDS_P1;SDS_P2;PMS_P1;PMS_P2;Temp;Humidity;BMP_temperature;BMP_pressure;BME280_temperature;BME280_humidity;BME280_pressure;Samples;Min_cycle;Max_cycle;Signal;HPM_P1;HPM_P2
2023/09/01 00:00:34;;;;;;;;;;;17.70;97.60;;;;;;5093202;28;20478;-66
2023/09/01 00:03:00;;;;;;;;;;;17.90;97.80;;;;;;5092876;28;19931;-68
2023/09/01 00:05:27;;;;;;;;;;;18.00;97.40;;;;;;5074631;28;19967;-67
2023/09/01 00:07:54;;;;;;;;;;;18.00;96.70;;;;;;5092894;28;20003;-67
2023/09/01 00:10:20;;;;;;;;;;;18.00;96.30;;;;;;5092909;28;19908;-68
2023/09/01 00:12:47;;;;;;;;;;;18.00;96.40;;;;;;5093005;28;19908;-68
2023/09/01 00:15:13;;;;;;;;;;;17.90;96.50;;;;;;5092842;28;19915;-67
2023/09/01 00:17:40;;;;;;;;;;;17.90;95.40;;;;;;5093015;28;19909;-66
2023/09/01 00:20:07;;;;;;;;;;;17.70;95.60;;;;;;5092806;28;19908;-67
2023/09/01 00:22:34;;;;;;;;;;;17.60;96.00;;;;;;5092732;28;19908;-66
2023/09/01 00:25:00;;;;;;;;;;;17.60;95.50;;;;;;5092673;28;19916;-67
2023/09/01 00:27:27;;;;;;;;;;;17.50;95.10;;;;;;5092599;28;19974;-67
2023/09/01 00:29:54;;;;;;;;;;;17.60;94.90;;;;;;5092687;28;19916;-68
2023/09/01 00:32:20;;;;;;;;;;;17.70;94.70;;;;;;5092802;28;20280;-66
2023/09/01 00:34:55;;;;;;;;;;;17.60;93.80;;;;;;5092730;28;19992;-68
2023/09/01 00:37:21;;;;;;;;;;;17.60;93.40;;;;;;5092872;28;19919;-66
2023/09/01 00:39:48;;;;;;;;;;;17.50;93.20;;;;;;5092865;28;20347;-68
2023/09/01 00:42:15;;;;;;;;;;;17.50;93.40;;;;;;5092774;28;19908;-65
2023/09/01 00:44:41;;;;;;;;;;;17.60;93.60;;;;;;5092619;28;19959;-67
2023/09/01 00:47:08;;;;;;;;;;;17.60;92.90;;;;;;5092822;28;19924;-67
2023/09/01 00:49:38;;;;;;;;;;;17.70;92.70;;;;;;5092831;28;20293;-65
2023/09/01 00:52:04;;;;;;;;;;;17.80;92.90;;;;;;5092417;28;19999;-68
2023/09/01 00:54:31;;;;;;;;;;;17.80;92.90;;;;;;5092601;28;19919;-68
2023/09/01 00:56:58;;;;;;;;;;;17.90;92.70;;;;;;5092486;28;19909;-67
2023/09/01 00:59:24;;;;;;;;;;;18.00;92.40;;;;;;5092511;28;19908;-68
2023/09/01 01:01:52;;;;;;;;;;;18.10;91.40;;;;;;5092755;28;19908;-66
2023/09/01 01:04:20;;;;;;;;;;;18.20;91.60;;;;;;5092297;28;19922;-67
2023/09/01 01:07:02;;;;;;;;;;;18.40;91.20;;;;;;5092563;28;20292;-65
2023/09/01 01:09:29;;;;;;;;;;;18.40;90.70;;;;;;5092351;28;20020;-68
2023/09/01 01:11:58;;;;;;;;;;;18.60;90.70;;;;;;5092319;28;19931;-69
2023/09/01 01:14:35;;;;;;;;;;;18.70;90.80;;;;;;5092438;28;19908;-66
2023/09/01 01:17:05;;;;;;;;;;;18.80;90.20;;;;;;5096397;28;19966;-67
2023/09/01 01:19:32;;;;;;;;;;;18.90;90.40;;;;;;5096247;28;19912;-66
2023/09/01 01:22:00;;;;;;;;;;;19.00;90.80;;;;;;5096179;28;19912;-67
2023/09/01 01:24:27;;;;;;;;;;;19.10;90.10;;;;;;5096388;28;19960;-66
2023/09/01 01:26:53;;;;;;;;;;;19.50;89.40;;;;;;5096296;28;19908;-67
2023/09/01 01:29:20;;;;;;;;;;;19.70;89.80;;;;;;5096351;28;20003;-66
2023/09/01 01:31:47;;;;;;;;;;;19.80;87.80;;;;;;5096061;28;19909;-67
2023/09/01 01:34:45;;;;;;;;;;;19.60;87.20;;;;;;5096018;28;19909;-68
2023/09/01 01:37:26;;;;;;;;;;;19.40;88.40;;;;;;5061526;28;19953;-68
2023/09/01 01:39:54;;;;;;;;;;;19.40;90.00;;;;;;5095882;28;19914;-67
2023/09/01 01:42:21;;;;;;;;;;;19.50;90.00;;;;;;5095946;28;19980;-68
2023/09/01 01:44:48;;;;;;;;;;;19.50;89.60;;;;;;5095932;28;19920;-66
2023/09/01 01:47:16;;;;;;;;;;;19.60;89.60;;;;;;5095776;28;20387;-68
2023/09/01 01:49:43;;;;;;;;;;;19.40;90.00;;;;;;5095632;28;20383;-67
2023/09/01 01:52:09;;;;;;;;;;;19.30;90.10;;;;;;5095324;28;20288;-66
2023/09/01 01:54:36;;;;;;;;;;;19.40;90.20;;;;;;5095588;28;19915;-66
2023/09/01 01:57:02;;;;;;;;;;;19.70;89.50;;;;;;5095407;28;19915;-68
2023/09/01 01:59:29;;;;;;;;;;;19.80;88.50;;;;;;5095581;28;19912;-70
2023/09/01 02:01:56;;;;;;;;;;;19.90;86.80;;;;;;5095617;28;19908;-68
2023/09/01 02:04:22;;;;;;;;;;;20.00;86.90;;;;;;5095449;28;19916;-67
2023/09/01 02:06:49;;;;;;;;;;;20.40;86.60;;;;;;5095197;28;19908;-67
2023/09/01 02:09:16;;;;;;;;;;;20.30;84.70;;;;;;5095480;28;19953;-68
2023/09/01 02:11:42;;;;;;;;;;;20.10;84.80;;;;;;5095230;28;19909;-67
2023/09/01 02:14:10;;;;;;;;;;;19.90;85.50;;;;;;5095482;28;19958;-68
2023/09/01 02:16:37;;;;;;;;;;;19.60;86.30;;;;;;5095063;28;19968;-68
2023/09/01 02:19:04;;;;;;;;;;;19.50;86.50;;;;;;5095207;28;20365;-67
2023/09/01 02:21:30;;;;;;;;;;;19.70;86.50;;;;;;5094891;28;19911;-68
2023/09/01 02:23:57;;;;;;;;;;;19.90;86.50;;;;;;5094951;28;20393;-67
2023/09/01 02:26:24;;;;;;;;;;;20.10;84.50;;;;;;5094957;28;19916;-67
2023/09/01 02:28:51;;;;;;;;;;;20.10;83.00;;;;;;5095237;28;19967;-67
2023/09/01 02:31:18;;;;;;;;;;;20.10;83.70;;;;;;5095306;28;20011;-67
2023/09/01 02:33:44;;;;;;;;;;;20.30;84.90;;;;;;5094953;28;19954;-67
2023/09/01 02:36:37;;;;;;;;;;;20.50;84.20;;;;;;5094630;28;20417;-69
2023/09/01 02:39:09;;;;;;;;;;;20.80;83.80;;;;;;5091521;28;19915;-67
2023/09/01 02:41:36;;;;;;;;;;;21.30;81.30;;;;;;5094748;28;20317;-67
2023/09/01 02:44:03;;;;;;;;;;;22.00;79.50;;;;;;5094751;28;19923;-68
2023/09/01 02:46:30;;;;;;;;;;;22.60;77.30;;;;;;5094291;28;20425;-67
2023/09/01 02:48:57;;;;;;;;;;;23.40;75.80;;;;;;5095423;28;20380;-67
2023/09/01 02:51:24;;;;;;;;;;;24.00;73.20;;;;;;5094604;28;19911;-68
2023/09/01 02:53:50;;;;;;;;;;;24.40;73.10;;;;;;5094610;28;19915;-68
2023/09/01 02:56:18;;;;;;;;;;;25.30;71.30;;;;;;5094181;28;19908;-68
2023/09/01 02:58:45;;;;;;;;;;;25.90;69.00;;;;;;5094378;28;20392;-66
2023/09/01 03:01:12;;;;;;;;;;;26.10;67.10;;;;;;5094362;28;19919;-67
2023/09/01 03:03:40;;;;;;;;;;;25.80;66.40;;;;;;5094480;28;19915;-69
2023/09/01 03:06:08;;;;;;;;;;;26.30;65.70;;;;;;5076071;28;19912;-66
2023/09/01 03:08:38;;;;;;;;;;;27.10;65.00;;;;;;5094164;28;20033;-67
2023/09/01 03:11:05;;;;;;;;;;;27.40;64.10;;;;;;5093883;28;19914;-66
2023/09/01 03:13:32;;;;;;;;;;;28.00;64.30;;;;;;5094320;28;19916;-67
2023/09/01 03:15:58;;;;;;;;;;;28.30;62.20;;;;;;5093982;28;19908;-67
2023/09/01 03:18:25;;;;;;;;;;;28.20;60.90;;;;;;5093917;28;19914;-67
2023/09/01 03:20:55;;;;;;;;;;;28.70;61.00;;;;;;5094153;28;19969;-69
2023/09/01 03:23:22;;;;;;;;;;;28.90;59.80;;;;;;5094257;28;19909;-66
2023/09/01 03:25:55;;;;;;;;;;;29.10;59.00;;;;;;5094014;28;19986;-67
2023/09/01 03:28:22;;;;;;;;;;;28.80;59.20;;;;;;5093883;28;20292;-67
2023/09/01 03:30:48;;;;;;;;;;;28.60;60.10;;;;;;5093756;28;19915;-67
2023/09/01 03:33:15;;;;;;;;;;;29.10;58.90;;;;;;5093371;28;19908;-67
2023/09/01 03:35:42;;;;;;;;;;;29.00;59.30;;;;;;5075417;28;20019;-68
2023/09/01 03:38:08;;;;;;;;;;;29.60;58.10;;;;;;5092881;28;20360;-66
2023/09/01 03:40:38;;;;;;;;;;;29.80;60.00;;;;;;5093013;28;19908;-68
2023/09/01 03:43:07;;;;;;;;;;;29.90;59.00;;;;;;5093042;28;19979;-67
2023/09/01 03:45:34;;;;;;;;;;;29.80;58.40;;;;;;5092836;28;19963;-68
2023/09/01 03:48:01;;;;;;;;;;;29.80;57.70;;;;;;5093428;28;20013;-70
2023/09/01 03:50:27;;;;;;;;;;;30.30;58.00;;;;;;5093411;28;19908;-68
2023/09/01 03:52:54;;;;;;;;;;;30.70;56.40;;;;;;5093366;28;20365;-68
2023/09/01 03:55:21;;;;;;;;;;;30.10;55.90;;;;;;5093224;28;19908;-68
2023/09/01 03:57:47;;;;;;;;;;;29.80;56.70;;;;;;5093239;28;19908;-69
2023/09/01 04:00:14;;;;;;;;;;;29.40;57.40;;;;;;5093141;28;19909;-67
2023/09/01 04:02:41;;;;;;;;;;;29.20;58.00;;;;;;5093234;28;19908;-67
2023/09/01 04:05:08;;;;;;;;;;;29.40;57.80;;;;;;5092909;28;19920;-68
2023/09/01 04:07:34;;;;;;;;;;;29.30;58.20;;;;;;5092906;28;19908;-68
2023/09/01 04:10:04;;;;;;;;;;;29.60;58.40;;;;;;5093002;28;19908;-68
2023/09/01 04:12:30;;;;;;;;;;;30.30;56.40;;;;;;5093011;28;20280;-68
2023/09/01 04:14:57;;;;;;;;;;;29.60;56.30;;;;;;5092899;28;19919;-66
2023/09/01 04:17:25;;;;;;;;;;;29.50;56.50;;;;;;5092859;28;19939;-65
2023/09/01 04:19:52;;;;;;;;;;;29.70;56.80;;;;;;5074813;28;19912;-68
2023/09/01 04:22:18;;;;;;;;;;;29.90;56.30;;;;;;5093083;28;19920;-66
2023/09/01 04:24:45;;;;;;;;;;;29.90;56.60;;;;;;5092789;28;19963;-68
2023/09/01 04:27:11;;;;;;;;;;;30.00;56.30;;;;;;5092354;28;19908;-67
2023/09/01 04:29:40;;;;;;;;;;;29.90;56.30;;;;;;5091609;28;19908;-67
2023/09/01 04:32:06;;;;;;;;;;;30.00;57.00;;;;;;5091684;28;19935;-67
2023/09/01 04:34:33;;;;;;;;;;;29.50;58.20;;;;;;5091805;28;19915;-66
2023/09/01 04:37:00;;;;;;;;;;;29.70;58.80;;;;;;5091502;28;19908;-71
2023/09/01 04:39:26;;;;;;;;;;;30.00;58.40;;;;;;5091062;28;19908;-67
2023/09/01 04:41:53;;;;;;;;;;;30.20;58.40;;;;;;5090798;28;19908;-68
2023/09/01 04:44:20;;;;;;;;;;;30.20;58.60;;;;;;5072620;28;20458;-69
2023/09/01 04:46:46;;;;;;;;;;;29.80;59.30;;;;;;5090513;28;20308;-67
2023/09/01 04:49:13;;;;;;;;;;;29.90;58.50;;;;;;5091776;28;19908;-68
2023/09/01 04:51:39;;;;;;;;;;;29.60;57.30;;;;;;5095558;28;19908;-67
2023/09/01 04:54:07;;;;;;;;;;;29.40;58.30;;;;;;5096926;28;19915;-67
2023/09/01 04:56:33;;;;;;;;;;;29.30;57.70;;;;;;5096875;28;19916;-67
2023/09/01 04:59:00;;;;;;;;;;;29.30;57.10;;;;;;5096972;28;19908;-67
2023/09/01 05:01:27;;;;;;;;;;;29.60;57.10;;;;;;5097234;28;20383;-66
2023/09/01 05:03:53;;;;;;;;;;;29.30;57.30;;;;;;5096643;28;19916;-68
2023/09/01 05:06:20;;;;;;;;;;;29.40;57.50;;;;;;5096394;28;20292;-68
2023/09/01 05:08:46;;;;;;;;;;;29.80;57.10;;;;;;5096534;28;19909;-67
2023/09/01 05:11:13;;;;;;;;;;;29.80;56.60;;;;;;5096655;28;19961;-68
2023/09/01 05:13:40;;;;;;;;;;;29.70;56.90;;;;;;5096416;28;19954;-67
2023/09/01 05:16:10;;;;;;;;;;;29.70;57.30;;;;;;5096492;28;19908;-68
2023/09/01 05:18:37;;;;;;;;;;;29.60;57.10;;;;;;5096189;28;20373;-68
2023/09/01 05:21:03;;;;;;;;;;;29.60;58.10;;;;;;5094867;28;19908;-70
2023/09/01 05:23:32;;;;;;;;;;;30.40;57.80;;;;;;5094883;28;19919;-67
2023/09/01 05:25:58;;;;;;;;;;;30.20;58.40;;;;;;5077142;28;19916;-68
2023/09/01 05:28:25;;;;;;;;;;;29.70;58.90;;;;;;5095677;28;19909;-67
2023/09/01 05:30:52;;;;;;;;;;;29.40;59.80;;;;;;5095717;28;19961;-68
2023/09/01 05:33:18;;;;;;;;;;;29.20;60.00;;;;;;5095928;28;20360;-68
2023/09/01 05:35:45;;;;;;;;;;;29.30;59.80;;;;;;5077572;28;20258;-66
2023/09/01 05:38:11;;;;;;;;;;;29.90;58.60;;;;;;5096055;28;19916;-68
2023/09/01 05:40:38;;;;;;;;;;;29.80;58.40;;;;;;5098994;28;19918;-67
2023/09/01 05:43:05;;;;;;;;;;;29.30;59.50;;;;;;5095609;28;19918;-69
2023/09/01 05:45:31;;;;;;;;;;;28.90;60.70;;;;;;5097515;28;19920;-70
2023/09/01 05:47:58;;;;;;;;;;;28.50;60.90;;;;;;5097616;28;19907;-67
2023/09/01 05:50:25;;;;;;;;;;;28.70;61.10;;;;;;5115955;28;20352;-67
2023/09/01 05:52:51;;;;;;;;;;;28.90;61.00;;;;;;5112086;28;20368;-68
2023/09/01 05:55:18;;;;;;;;;;;28.60;60.00;;;;;;5115990;28;19908;-68
2023/09/01 05:57:44;;;;;;;;;;;28.40;59.60;;;;;;5116001;28;20402;-67
2023/09/01 06:00:11;;;;;;;;;;;28.30;58.90;;;;;;5115962;28;19908;-71
2023/09/01 06:02:38;;;;;;;;;;;28.50;59.50;;;;;;5115484;28;19912;-68
2023/09/01 06:05:05;;;;;;;;;;;28.90;58.90;;;;;;5111871;28;19932;-67
2023/09/01 06:07:31;;;;;;;;;;;28.70;58.70;;;;;;5115607;28;19907;-67
2023/09/01 06:09:58;;;;;;;;;;;28.10;58.60;;;;;;5115612;28;19908;-68
2023/09/01 06:12:25;;;;;;;;;;;27.80;57.80;;;;;;5115212;28;20356;-67
2023/09/01 06:14:51;;;;;;;;;;;27.70;58.20;;;;;;5115533;28;20424;-68
2023/09/01 06:17:18;;;;;;;;;;;27.80;57.80;;;;;;5097162;28;20365;-67
2023/09/01 06:19:45;;;;;;;;;;;27.50;58.60;;;;;;5114946;28;19915;-68
2023/09/01 06:22:11;;;;;;;;;;;27.50;59.20;;;;;;5115241;28;20398;-68
2023/09/01 06:24:38;;;;;;;;;;;27.60;59.30;;;;;;5115091;28;20139;-68
2023/09/01 06:27:05;;;;;;;;;;;27.70;58.80;;;;;;5115353;28;19908;-68
2023/09/01 06:29:32;;;;;;;;;;;28.00;61.60;;;;;;5115109;28;19961;-68
2023/09/01 06:31:58;;;;;;;;;;;27.40;63.90;;;;;;5114879;28;19923;-68
2023/09/01 06:34:25;;;;;;;;;;;27.30;64.80;;;;;;5114589;28;19931;-67
2023/09/01 06:36:51;;;;;;;;;;;27.00;64.30;;;;;;5114837;28;19968;-68
2023/09/01 06:39:18;;;;;;;;;;;26.50;64.60;;;;;;5114562;28;19908;-66
2023/09/01 06:41:46;;;;;;;;;;;25.60;65.10;;;;;;5115224;28;19907;-69
2023/09/01 06:44:12;;;;;;;;;;;25.30;65.70;;;;;;5114768;28;20434;-68
2023/09/01 06:46:39;;;;;;;;;;;24.80;65.90;;;;;;5114774;28;20307;-67
2023/09/01 06:49:06;;;;;;;;;;;24.50;66.40;;;;;;5115140;28;20035;-67
2023/09/01 06:51:32;;;;;;;;;;;24.00;66.80;;;;;;5114678;28;20363;-68
2023/09/01 06:53:59;;;;;;;;;;;23.40;68.00;;;;;;5114877;28;19908;-66
2023/09/01 06:56:26;;;;;;;;;;;22.60;70.20;;;;;;5114583;28;20007;-68
2023/09/01 06:58:53;;;;;;;;;;;21.50;74.30;;;;;;5096457;28;19907;-68
2023/09/01 07:01:21;;;;;;;;;;;20.50;76.70;;;;;;5114199;28;19908;-67
2023/09/01 07:03:48;;;;;;;;;;;19.70;79.70;;;;;;5114216;28;19935;-69
2023/09/01 07:06:15;;;;;;;;;;;19.10;80.80;;;;;;5114434;28;19907;-67
2023/09/01 07:08:41;;;;;;;;;;;18.60;81.50;;;;;;5114547;28;19912;-66
2023/09/01 07:11:12;;;;;;;;;;;18.20;82.30;;;;;;5113965;28;19908;-67
2023/09/01 07:13:39;;;;;;;;;;;17.80;82.20;;;;;;5112880;28;19908;-66
2023/09/01 07:16:06;;;;;;;;;;;17.60;82.70;;;;;;5114110;28;19908;-66
2023/09/01 07:18:33;;;;;;;;;;;17.30;83.80;;;;;;5114467;28;19933;-67
2023/09/01 07:21:00;;;;;;;;;;;17.20;85.10;;;;;;5114003;28;20016;-65
2023/09/01 07:23:27;;;;;;;;;;;17.20;85.80;;;;;;5113796;28;19958;-67
2023/09/01 07:25:54;;;;;;;;;;;17.00;84.80;;;;;;5114012;28;19920;-67
2023/09/01 07:28:21;;;;;;;;;;;16.80;84.80;;;;;;5113827;28;19915;-67
2023/09/01 07:30:48;;;;;;;;;;;16.80;85.20;;;;;;5113511;28;19908;-66
2023/09/01 07:33:16;;;;;;;;;;;16.70;86.50;;;;;;5113988;28;19908;-68
2023/09/01 07:35:46;;;;;;;;;;;16.60;87.70;;;;;;5113872;28;19919;-66
2023/09/01 07:38:13;;;;;;;;;;;16.50;88.40;;;;;;5105409;27;19912;-70
2023/09/01 07:40:39;;;;;;;;;;;16.40;89.20;;;;;;5111992;28;19908;-67
2023/09/01 07:43:07;;;;;;;;;;;16.30;90.00;;;;;;5100913;27;20356;-67
2023/09/01 07:45:33;;;;;;;;;;;16.30;90.50;;;;;;5092608;28;19927;-68
2023/09/01 07:48:00;;;;;;;;;;;16.20;90.70;;;;;;5102103;28;19918;-69
2023/09/01 07:50:30;;;;;;;;;;;16.20;90.70;;;;;;5099631;28;19914;-67
2023/09/01 07:52:57;;;;;;;;;;;16.10;91.00;;;;;;5100327;28;19957;-69
2023/09/01 07:55:24;;;;;;;;;;;16.00;90.90;;;;;;5092618;28;19974;-68
2023/09/01 07:57:50;;;;;;;;;;;16.00;91.30;;;;;;5099696;28;19916;-67
2023/09/01 08:00:17;;;;;;;;;;;15.90;91.20;;;;;;5101281;28;19944;-66
2023/09/01 08:02:44;;;;;;;;;;;15.90;91.40;;;;;;5098661;28;19965;-68
2023/09/01 08:05:10;;;;;;;;;;;15.80;91.70;;;;;;5093728;28;20335;-68
2023/09/01 08:07:37;;;;;;;;;;;15.80;92.20;;;;;;5096010;28;19918;-68
2023/09/01 08:10:04;;;;;;;;;;;15.80;92.30;;;;;;5106457;28;19915;-66
2023/09/01 08:12:31;;;;;;;;;;;15.80;92.60;;;;;;5103024;27;19908;-66
2023/09/01 08:14:57;;;;;;;;;;;15.70;93.00;;;;;;5095915;28;19912;-67
2023/09/01 08:17:24;;;;;;;;;;;15.80;93.90;;;;;;5094915;28;19919;-66
2023/09/01 08:19:50;;;;;;;;;;;15.80;94.40;;;;;;5092076;28;19912;-67
2023/09/01 08:22:17;;;;;;;;;;;15.80;95.00;;;;;;5093308;28;19915;-69
2023/09/01 08:24:45;;;;;;;;;;;15.80;94.90;;;;;;5097686;28;19923;-68
2023/09/01 08:27:12;;;;;;;;;;;15.70;94.60;;;;;;5100962;28;19912;-66
2023/09/01 08:29:38;;;;;;;;;;;15.70;94.40;;;;;;5092004;28;19919;-66
2023/09/01 08:32:05;;;;;;;;;;;15.60;94.50;;;;;;5101002;28;19908;-68
2023/09/01 08:34:32;;;;;;;;;;;15.50;94.50;;;;;;5099744;28;19948;-66
2023/09/01 08:36:59;;;;;;;;;;;15.60;94.60;;;;;;5090734;28;19912;-66
2023/09/01 08:39:25;;;;;;;;;;;15.60;95.00;;;;;;5092099;28;20499;-67
2023/09/01 08:41:53;;;;;;;;;;;15.50;95.10;;;;;;5092365;28;19919;-67
2023/09/01 08:44:23;;;;;;;;;;;15.50;95.30;;;;;;5100600;28;20358;-68
2023/09/01 08:46:55;;;;;;;;;;;15.50;95.30;;;;;;5092945;28;19966;-67
2023/09/01 08:49:26;;;;;;;;;;;15.50;95.40;;;;;;5091100;28;20297;-68
2023/09/01 08:51:57;;;;;;;;;;;15.40;95.60;;;;;;5090427;28;19912;-67
2023/09/01 08:54:25;;;;;;;;;;;15.40;95.40;;;;;;5106911;28;20257;-67
2023/09/01 08:56:52;;;;;;;;;;;15.40;95.40;;;;;;5098535;28;20318;-70
2023/09/01 08:59:19;;;;;;;;;;;15.30;95.60;;;;;;5093537;28;19935;-67
2023/09/01 09:01:47;;;;;;;;;;;15.30;95.80;;;;;;5091124;28;20342;-66
2023/09/01 09:04:14;;;;;;;;;;;15.40;96.10;;;;;;5098824;28;20019;-67
2023/09/01 09:06:40;;;;;;;;;;;15.40;95.80;;;;;;5094812;28;20356;-67
2023/09/01 09:09:14;;;;;;;;;;;15.40;95.30;;;;;;5093030;28;19912;-69
2023/09/01 09:11:57;;;;;;;;;;;15.40;94.90;;;;;;5095011;28;19934;-66
2023/09/01 09:14:30;;;;;;;;;;;15.40;94.60;;;;;;5099151;28;19955;-65
2023/09/01 09:16:57;;;;;;;;;;;15.40;94.00;;;;;;5099197;28;19916;-66
2023/09/01 09:19:24;;;;;;;;;;;15.40;93.90;;;;;;5097555;28;20369;-66
2023/09/01 09:22:07;;;;;;;;;;;15.40;94.20;;;;;;5091541;28;19912;-65
2023/09/01 09:24:35;;;;;;;;;;;15.50;94.60;;;;;;5105892;28;20280;-66
2023/09/01 09:27:03;;;;;;;;;;;15.40;95.00;;;;;;5098471;28;19912;-68
2023/09/01 09:29:38;;;;;;;;;;;15.40;95.20;;;;;;5104844;28;19916;-66
2023/09/01 09:32:15;;;;;;;;;;;15.40;95.00;;;;;;5091200;28;19916;-68
2023/09/01 09:34:43;;;;;;;;;;;15.40;95.00;;;;;;5099156;28;19916;-69
2023/09/01 09:37:18;;;;;;;;;;;15.40;95.10;;;;;;5101310;28;19969;-67
2023/09/01 09:39:45;;;;;;;;;;;15.30;95.20;;;;;;5091082;28;19915;-64
2023/09/01 09:42:11;;;;;;;;;;;15.40;95.60;;;;;;5079175;28;20428;-67
2023/09/01 09:44:38;;;;;;;;;;;15.30;95.80;;;;;;5108185;28;19916;-65
2023/09/01 09:47:10;;;;;;;;;;;15.40;96.10;;;;;;5112364;28;20417;-64
2023/09/01 09:49:40;;;;;;;;;;;15.30;96.40;;;;;;5110439;28;19912;-66
2023/09/01 09:52:08;;;;;;;;;;;15.30;96.80;;;;;;5108900;28;20415;-65
2023/09/01 09:54:37;;;;;;;;;;;15.30;96.80;;;;;;5113034;28;19912;-67
2023/09/01 09:57:06;;;;;;;;;;;15.30;96.60;;;;;;5112588;28;19912;-65
2023/09/01 09:59:58;;;;;;;;;;;15.30;96.60;;;;;;5113382;28;20022;-66
2023/09/01 10:02:30;;;;;;;;;;;15.40;96.30;;;;;;5107338;28;19919;-66
2023/09/01 10:04:58;;;;;;;;;;;15.30;96.10;;;;;;5113501;27;20253;-67
2023/09/01 10:07:25;;;;;;;;;;;15.30;95.70;;;;;;5112703;28;19912;-66
2023/09/01 10:09:52;;;;;;;;;;;15.30;95.40;;;;;;5110601;28;19926;-67
2023/09/01 10:12:19;;;;;;;;;;;15.30;95.50;;;;;;5111566;28;19916;-66
2023/09/01 10:14:48;;;;;;;;;;;15.30;95.60;;;;;;5114061;28;19912;-65
2023/09/01 10:17:15;;;;;;;;;;;15.30;96.00;;;;;;5113369;28;20387;-65
2023/09/01 10:19:42;;;;;;;;;;;15.30;96.20;;;;;;5111072;28;20016;-66
2023/09/01 10:22:09;;;;;;;;;;;15.30;96.40;;;;;;5095039;28;19912;-66
2023/09/01 10:24:36;;;;;;;;;;;15.20;96.60;;;;;;5101978;27;19916;-66
2023/09/01 10:27:07;;;;;;;;;;;15.20;96.80;;;;;;5094398;28;20007;-65
2023/09/01 10:29:34;;;;;;;;;;;15.10;96.80;;;;;;5107311;27;19998;-67
2023/09/01 10:32:17;;;;;;;;;;;15.20;97.00;;;;;;5095442;28;19936;-67
2023/09/01 10:34:51;;;;;;;;;;;15.10;97.30;;;;;;5101213;28;19912;-66
2023/09/01 10:37:27;;;;;;;;;;;15.00;97.40;;;;;;5094052;28;19908;-65
2023/09/01 10:39:54;;;;;;;;;;;14.90;97.50;;;;;;5109376;27;19918;-68
2023/09/01 10:42:40;;;;;;;;;;;14.90;97.80;;;;;;5093633;28;20060;-66
2023/09/01 10:45:06;;;;;;;;;;;14.80;97.70;;;;;;5101324;27;19927;-66
2023/09/01 10:47:34;;;;;;;;;;;14.70;97.80;;;;;;5096461;28;20018;-67
2023/09/01 10:50:01;;;;;;;;;;;14.80;98.20;;;;;;5110038;27;20024;-67
2023/09/01 10:52:29;;;;;;;;;;;14.80;98.40;;;;;;5093899;28;19915;-68
2023/09/01 10:55:03;;;;;;;;;;;14.70;98.70;;;;;;5101532;28;19916;-66
2023/09/01 10:57:43;;;;;;;;;;;14.70;99.00;;;;;;5093495;28;19924;-66
2023/09/01 11:00:30;;;;;;;;;;;14.70;99.20;;;;;;5097608;28;19916;-67
2023/09/01 11:03:15;;;;;;;;;;;14.70;99.40;;;;;;5095438;28;19908;-67
2023/09/01 11:05:42;;;;;;;;;;;14.60;99.60;;;;;;5108058;27;19931;-67
2023/09/01 11:08:10;;;;;;;;;;;14.50;99.70;;;;;;5095082;28;20373;-66
2023/09/01 11:10:38;;;;;;;;;;;14.50;99.90;;;;;;5106798;28;19912;-66
2023/09/01 11:13:14;;;;;;;;;;;14.50;99.90;;;;;;5098980;28;19916;-67
2023/09/01 11:15:45;;;;;;;;;;;14.40;99.90;;;;;;5100307;27;19916;-66
2023/09/01 11:18:19;;;;;;;;;;;14.50;99.90;;;;;;5093206;28;20269;-67
2023/09/01 11:20:47;;;;;;;;;;;14.50;99.90;;;;;;5109406;28;20318;-67
2023/09/01 11:23:14;;;;;;;;;;;14.40;99.90;;;;;;5093190;28;19908;-68
2023/09/01 11:25:41;;;;;;;;;;;14.30;99.90;;;;;;5106255;28;19920;-67
2023/09/01 11:28:14;;;;;;;;;;;14.20;99.90;;;;;;5097326;28;20017;-67
2023/09/01 11:30:57;;;;;;;;;;;14.20;99.90;;;;;;5108619;28;20280;-66
2023/09/01 11:33:25;;;;;;;;;;;14.10;99.90;;;;;;5092992;28;19935;-67
2023/09/01 11:36:05;;;;;;;;;;;14.10;99.90;;;;;;5096299;28;19993;-66
2023/09/01 11:38:32;;;;;;;;;;;14.10;99.90;;;;;;5092979;28;19912;-67
2023/09/01 11:40:59;;;;;;;;;;;14.10;99.90;;;;;;5108447;28;19915;-66
2023/09/01 11:43:26;;;;;;;;;;;14.10;99.90;;;;;;5092878;28;20049;-67
2023/09/01 11:45:52;;;;;;;;;;;14.10;99.90;;;;;;5100061;28;19924;-66
2023/09/01 11:48:26;;;;;;;;;;;14.10;99.90;;;;;;5092444;28;19957;-66
2023/09/01 11:50:57;;;;;;;;;;;14.20;99.90;;;;;;5108201;27;20392;-67
2023/09/01 11:53:32;;;;;;;;;;;14.20;99.90;;;;;;5095320;28;20993;-66
2023/09/01 11:56:01;;;;;;;;;;;14.20;99.90;;;;;;5099791;27;19956;-66
2023/09/01 11:58:33;;;;;;;;;;;14.30;99.90;;;;;;5091651;28;19912;-65
2023/09/01 12:01:13;;;;;;;;;;;14.40;99.90;;;;;;5108134;27;19912;-67
2023/09/01 12:03:44;;;;;;;;;;;14.50;99.90;;;;;;5092624;28;20392;-67
2023/09/01 12:06:28;;;;;;;;;;;14.50;99.90;;;;;;5092574;28;19946;-65
2023/09/01 12:09:10;;;;;;;;;;;14.50;99.90;;;;;;5093944;28;19909;-65
2023/09/01 12:11:51;;;;;;;;;;;14.40;99.90;;;;;;5093989;28;19913;-68
2023/09/01 12:14:25;;;;;;;;;;;14.40;99.90;;;;;;5097268;28;19914;-66
2023/09/01 12:16:55;;;;;;;;;;;14.40;99.90;;;;;;5093117;28;19922;-69
2023/09/01 12:19:25;;;;;;;;;;;14.40;99.90;;;;;;5097292;28;19922;-67
2023/09/01 12:21:53;;;;;;;;;;;14.30;99.90;;;;;;5082509;28;20086;-65
2023/09/01 12:24:20;;;;;;;;;;;14.30;99.90;;;;;;5096749;27;20022;-66
2023/09/01 12:26:47;;;;;;;;;;;14.20;99.90;;;;;;5094683;28;19915;-67
2023/09/01 12:29:14;;;;;;;;;;;14.20;99.90;;;;;;5096760;28;19920;-69
2023/09/01 12:31:40;;;;;;;;;;;14.30;99.90;;;;;;5104705;28;19914;-67
2023/09/01 12:34:07;;;;;;;;;;;14.30;99.90;;;;;;5094689;28;19951;-65
2023/09/01 12:36:34;;;;;;;;;;;14.30;99.90;;;;;;5108822;28;19916;-65
2023/09/01 12:39:00;;;;;;;;;;;14.20;99.90;;;;;;5075699;28;19958;-66
2023/09/01 12:41:27;;;;;;;;;;;14.20;99.90;;;;;;5106603;28;20308;-67
2023/09/01 12:43:54;;;;;;;;;;;14.20;99.90;;;;;;5091917;28;19908;-67
2023/09/01 12:46:21;;;;;;;;;;;14.20;99.90;;;;;;5099106;28;19973;-66
2023/09/01 12:48:47;;;;;;;;;;;14.20;99.90;;;;;;5091812;28;19908;-66
2023/09/01 12:51:14;;;;;;;;;;;14.20;99.90;;;;;;5107757;28;19919;-66
2023/09/01 12:53:41;;;;;;;;;;;14.20;99.90;;;;;;5091938;28;19915;-66
2023/09/01 12:56:10;;;;;;;;;;;14.10;99.90;;;;;;5099175;28;19955;-66
2023/09/01 12:58:37;;;;;;;;;;;14.20;99.90;;;;;;5091528;28;19908;-66
2023/09/01 13:01:03;;;;;;;;;;;14.20;99.90;;;;;;5107715;28;20388;-67
2023/09/01 13:03:30;;;;;;;;;;;14.00;99.90;;;;;;5091941;28;19908;-65
2023/09/01 13:05:57;;;;;;;;;;;14.00;99.90;;;;;;5098449;28;19960;-68
2023/09/01 13:08:23;;;;;;;;;;;13.90;99.90;;;;;;5091652;28;19908;-67
2023/09/01 13:10:50;;;;;;;;;;;13.90;99.90;;;;;;5106927;28;19911;-65
2023/09/01 13:13:18;;;;;;;;;;;13.90;99.90;;;;;;5097744;28;19912;-66
2023/09/01 13:15:47;;;;;;;;;;;13.80;99.90;;;;;;5102404;28;19916;-66
2023/09/01 13:18:14;;;;;;;;;;;13.80;99.90;;;;;;5095702;28;19916;-69
2023/09/01 13:20:41;;;;;;;;;;;13.80;99.90;;;;;;5108597;28;20077;-68
2023/09/01 13:23:08;;;;;;;;;;;13.80;99.90;;;;;;5098425;28;20299;-65
2023/09/01 13:25:34;;;;;;;;;;;13.80;99.90;;;;;;5099638;28;20284;-65
2023/09/01 13:28:01;;;;;;;;;;;13.80;99.90;;;;;;5095135;28;19915;-66
2023/09/01 13:30:27;;;;;;;;;;;13.70;99.90;;;;;;5106197;28;19915;-68
2023/09/01 13:32:54;;;;;;;;;;;13.70;99.90;;;;;;5100711;28;19947;-67
2023/09/01 13:35:21;;;;;;;;;;;13.80;99.90;;;;;;5099412;28;19912;-67
2023/09/01 13:37:47;;;;;;;;;;;13.80;99.90;;;;;;5095061;28;19973;-67
2023/09/01 13:40:14;;;;;;;;;;;13.70;99.90;;;;;;5100624;28;19969;-67
2023/09/01 13:42:41;;;;;;;;;;;13.70;99.90;;;;;;5095641;28;20418;-66
2023/09/01 13:45:08;;;;;;;;;;;13.70;99.90;;;;;;5099105;27;20339;-66
2023/09/01 13:47:34;;;;;;;;;;;13.70;99.90;;;;;;5094353;28;19971;-66
2023/09/01 13:50:01;;;;;;;;;;;13.70;99.90;;;;;;5100731;28;19912;-65
2023/09/01 13:52:28;;;;;;;;;;;13.70;99.90;;;;;;5105430;28;19908;-65
2023/09/01 13:54:54;;;;;;;;;;;13.60;99.90;;;;;;5098719;27;19912;-66
2023/09/01 13:57:21;;;;;;;;;;;13.50;99.90;;;;;;5094806;28;19915;-65
2023/09/01 13:59:48;;;;;;;;;;;13.40;99.90;;;;;;5097792;28;19964;-69
2023/09/01 14:02:15;;;;;;;;;;;13.30;99.90;;;;;;5107319;28;19912;-65
2023/09/01 14:04:42;;;;;;;;;;;13.30;99.90;;;;;;5096821;27;19918;-67
2023/09/01 14:07:08;;;;;;;;;;;13.20;99.90;;;;;;5096689;28;19930;-65
2023/09/01 14:09:35;;;;;;;;;;;13.20;99.90;;;;;;5095086;28;19912;-67
2023/09/01 14:12:03;;;;;;;;;;;13.10;99.90;;;;;;5109701;28;19908;-69
2023/09/01 14:14:29;;;;;;;;;;;13.10;99.90;;;;;;5103378;28;19908;-68
2023/09/01 14:16:56;;;;;;;;;;;13.10;99.90;;;;;;5099228;27;19931;-67
2023/09/01 14:19:23;;;;;;;;;;;13.10;99.90;;;;;;5094594;28;19908;-69
2023/09/01 14:21:49;;;;;;;;;;;13.10;99.90;;;;;;5109846;28;20470;-66